createdAt,value
2023-01-29T00:02:24.470Z,31.75
2023-01-29T00:04:51.431Z,32.17
2023-01-29T00:07:19.610Z,32.25
2023-01-29T00:09:47.402Z,31.40
2023-01-29T00:12:15.231Z,33.15
2023-01-29T00:14:42.174Z,33.05
2023-01-29T00:17:11.237Z,31.63
2023-01-29T00:19:39.140Z,32.05
2023-01-29T00:22:07.188Z,31.05
2023-01-29T00:24:34.296Z,31.52
2023-01-29T00:27:01.167Z,31.15
2023-01-29T00:29:28.612Z,31.83
2023-01-29T00:31:55.608Z,32.50
2023-01-29T00:34:55.603Z,32.65
2023-01-29T00:37:31.793Z,29.05
2023-01-29T00:40:15.417Z,29.35
2023-01-29T00:43:08.807Z,29.95
2023-01-29T00:45:38.840Z,30.42
2023-01-29T00:48:07.139Z,29.85
2023-01-29T00:50:35.269Z,28.98
2023-01-29T00:53:02.168Z,28.95
2023-01-29T00:55:29.838Z,27.98
2023-01-29T00:57:57.875Z,28.77
2023-01-29T01:00:25.430Z,28.98
2023-01-29T01:03:07.580Z,29.60
2023-01-29T01:05:35.120Z,22.80
2023-01-29T01:08:03.799Z,28.80
2023-01-29T01:10:32.965Z,29.23
2023-01-29T01:13:05.223Z,29.08
2023-01-29T01:15:35.722Z,28.90
2023-01-29T01:18:04.052Z,30.73
2023-01-29T01:20:36.079Z,28.38
2023-01-29T01:23:03.545Z,28.05
2023-01-29T01:25:31.207Z,27.65
2023-01-29T01:28:02.682Z,27.00
2023-01-29T01:30:29.931Z,26.90
2023-01-29T01:32:57.148Z,26.83
2023-01-29T01:35:25.854Z,26.90
2023-01-29T01:37:55.319Z,27.48
2023-01-29T01:40:24.742Z,26.77
2023-01-29T01:42:55.301Z,27.15
2023-01-29T01:45:38.383Z,25.20
2023-01-29T01:48:18.443Z,26.05
2023-01-29T01:50:50.866Z,26.48
2023-01-29T01:53:24.991Z,25.75
2023-01-29T01:56:01.580Z,25.65
2023-01-29T01:58:33.558Z,24.88
2023-01-29T02:01:01.579Z,26.52
2023-01-29T02:03:54.596Z,24.55
2023-01-29T02:06:42.406Z,24.00
2023-01-29T02:09:36.372Z,24.83
2023-01-29T02:12:11.456Z,24.65
2023-01-29T02:14:41.704Z,26.02
2023-01-29T02:17:17.651Z,26.80
2023-01-29T02:20:17.955Z,26.55
2023-01-29T02:23:12.433Z,26.58
2023-01-29T02:26:01.274Z,25.77
2023-01-29T02:28:54.600Z,19.80
2023-01-29T02:31:50.569Z,26.48
2023-01-29T02:35:00.620Z,26.77
2023-01-29T02:37:39.569Z,27.42
2023-01-29T02:40:17.605Z,28.27
2023-01-29T02:42:57.266Z,27.80
2023-01-29T02:45:45.224Z,27.20
2023-01-29T02:48:21.575Z,29.42
2023-01-29T02:51:14.288Z,28.00
2023-01-29T02:54:04.367Z,28.90
2023-01-29T02:56:48.516Z,28.70
2023-01-29T02:59:23.606Z,28.77
2023-01-29T03:01:58.622Z,30.08
2023-01-29T03:04:33.319Z,27.77
2023-01-29T03:07:10.727Z,29.42
2023-01-29T03:09:42.787Z,29.95
2023-01-29T03:12:34.224Z,30.70
2023-01-29T03:15:14.736Z,28.80
2023-01-29T03:18:05.568Z,29.50
2023-01-29T03:20:48.134Z,28.27
2023-01-29T03:23:48.602Z,28.98
2023-01-29T03:26:36.528Z,29.55
2023-01-29T03:29:24.038Z,30.10
2023-01-29T03:32:08.145Z,29.75
2023-01-29T03:34:52.407Z,30.08
2023-01-29T03:39:57.031Z,29.60
2023-01-29T03:42:42.674Z,29.60
2023-01-29T03:45:31.130Z,30.55
2023-01-29T03:48:12.661Z,29.92
2023-01-29T03:51:16.263Z,29.35
2023-01-29T03:53:55.370Z,29.02
2023-01-29T03:56:55.447Z,29.63
2023-01-29T03:59:41.473Z,29.60
2023-01-29T04:02:28.083Z,30.02
2023-01-29T04:05:08.335Z,29.80
2023-01-29T04:07:45.649Z,30.55
2023-01-29T04:10:21.617Z,28.75
2023-01-29T04:12:59.661Z,30.23
2023-01-29T04:15:30.525Z,31.05
2023-01-29T04:17:59.862Z,28.40
2023-01-29T04:20:43.347Z,30.50
2023-01-29T04:23:25.385Z,29.98
2023-01-29T04:28:51.589Z,29.23
2023-01-29T04:31:25.033Z,28.17
2023-01-29T04:34:28.964Z,27.70
2023-01-29T04:37:23.921Z,29.02
2023-01-29T04:40:09.374Z,29.50
2023-01-29T04:42:49.574Z,29.98
2023-01-29T04:45:50.415Z,31.60
2023-01-29T04:48:27.198Z,28.05
2023-01-29T04:50:58.138Z,29.70
2023-01-29T04:53:46.038Z,29.02
2023-01-29T04:56:21.829Z,30.50
2023-01-29T04:58:56.107Z,29.58
2023-01-29T05:01:29.782Z,29.33
2023-01-29T05:03:59.332Z,31.13
2023-01-29T05:06:27.189Z,29.20
2023-01-29T05:08:55.541Z,30.65
2023-01-29T05:11:23.794Z,30.02
2023-01-29T05:13:51.361Z,29.08
2023-01-29T05:16:30.023Z,29.33
2023-01-29T05:18:56.959Z,30.27
2023-01-29T05:21:25.000Z,29.40
2023-01-29T05:24:12.397Z,30.38
2023-01-29T05:26:58.303Z,29.52
2023-01-29T05:29:25.252Z,30.38
2023-01-29T05:31:52.191Z,28.80
2023-01-29T05:34:19.198Z,28.08
2023-01-29T05:36:47.056Z,28.52
2023-01-29T05:39:13.967Z,28.33
2023-01-29T05:41:41.435Z,24.27
2023-01-29T05:44:10.926Z,29.27
2023-01-29T05:46:38.409Z,29.33
2023-01-29T05:49:06.047Z,30.10
2023-01-29T05:51:32.939Z,28.33
2023-01-29T05:54:00.906Z,31.33
2023-01-29T05:56:27.934Z,30.92
2023-01-29T05:58:55.374Z,29.85
2023-01-29T06:01:25.581Z,31.17
2023-01-29T06:03:52.636Z,30.92
2023-01-29T06:06:22.067Z,31.95
2023-01-29T06:08:49.459Z,30.50
2023-01-29T06:11:18.288Z,31.48
2023-01-29T06:13:45.872Z,33.25
2023-01-29T06:16:15.834Z,32.20
2023-01-29T06:18:43.536Z,31.02
2023-01-29T06:21:13.147Z,31.33
2023-01-29T06:23:40.598Z,32.47
2023-01-29T06:26:10.970Z,30.75
2023-01-29T06:28:38.552Z,31.90
2023-01-29T06:31:24.036Z,32.58
2023-01-29T06:33:55.712Z,31.90
2023-01-29T06:36:23.870Z,31.48
2023-01-29T06:38:50.761Z,32.28
2023-01-29T06:41:19.487Z,32.45
2023-01-29T06:43:47.926Z,31.20
2023-01-29T06:46:18.651Z,32.30
2023-01-29T06:48:48.848Z,32.42
2023-01-29T06:51:15.768Z,24.63
2023-01-29T06:53:44.746Z,31.65
2023-01-29T06:56:12.889Z,31.38
2023-01-29T06:58:39.862Z,31.35
2023-01-29T07:01:08.655Z,31.13
2023-01-29T07:03:36.003Z,31.13
2023-01-29T07:06:03.663Z,31.83
2023-01-29T07:08:31.819Z,33.38
2023-01-29T07:11:01.696Z,33.78
2023-01-29T07:13:32.797Z,31.33
2023-01-29T07:16:01.050Z,32.53
2023-01-29T07:18:28.919Z,32.30
2023-01-29T07:20:56.534Z,34.70
2023-01-29T07:23:24.071Z,31.17
2023-01-29T07:25:51.458Z,32.10
2023-01-29T07:28:20.589Z,31.80
2023-01-29T07:30:55.610Z,30.05
2023-01-29T07:33:22.500Z,30.70
2023-01-29T07:35:49.413Z,32.80
2023-01-29T07:38:16.335Z,32.03
2023-01-29T07:40:43.339Z,32.05
2023-01-29T07:43:11.410Z,32.65
2023-01-29T07:45:41.108Z,30.88
2023-01-29T07:48:12.259Z,29.23
2023-01-29T07:50:39.871Z,30.38
2023-01-29T07:53:07.790Z,29.52
2023-01-29T07:55:35.553Z,27.60
2023-01-29T07:58:03.544Z,27.98
2023-01-29T08:00:32.788Z,26.75
2023-01-29T08:03:07.887Z,29.20
2023-01-29T08:05:35.339Z,27.17
2023-01-29T08:08:07.096Z,27.98
2023-01-29T08:10:41.813Z,26.63
2023-01-29T08:13:09.695Z,24.40
2023-01-29T08:15:39.032Z,27.23
2023-01-29T08:18:06.798Z,25.83
2023-01-29T08:20:33.791Z,25.17
2023-01-29T08:23:08.191Z,26.45
2023-01-29T08:25:35.638Z,28.23
2023-01-29T08:28:02.870Z,24.08
2023-01-29T08:30:33.105Z,26.83
2023-01-29T08:33:00.607Z,26.65
2023-01-29T08:35:27.833Z,25.25
2023-01-29T08:37:59.598Z,27.95
2023-01-29T08:40:29.062Z,27.95
2023-01-29T08:43:07.805Z,26.08
2023-01-29T08:45:40.390Z,26.92
2023-01-29T08:48:10.638Z,25.55
2023-01-29T08:50:48.879Z,25.25
2023-01-29T08:53:26.038Z,25.75
2023-01-29T08:55:53.507Z,26.75
2023-01-29T08:58:21.754Z,25.02
2023-01-29T09:00:50.079Z,24.85
2023-01-29T09:03:18.546Z,24.42
2023-01-29T09:05:46.837Z,26.33
2023-01-29T09:08:15.934Z,27.60
2023-01-29T09:10:42.872Z,25.40
2023-01-29T09:13:10.002Z,28.35
2023-01-29T09:15:40.222Z,26.50
2023-01-29T09:18:13.461Z,26.10
2023-01-29T09:20:42.457Z,26.88
2023-01-29T09:23:10.707Z,27.25
2023-01-29T09:25:38.344Z,24.60
2023-01-29T09:28:08.441Z,26.73
2023-01-29T09:30:37.812Z,27.45
2023-01-29T09:33:06.290Z,26.30
2023-01-29T09:35:44.581Z,25.98
2023-01-29T09:38:11.790Z,26.60
2023-01-29T09:41:19.195Z,26.55
2023-01-29T09:43:53.588Z,26.35
2023-01-29T09:47:00.557Z,19.85
2023-01-29T09:49:37.856Z,25.92
2023-01-29T09:52:11.299Z,24.17
2023-01-29T09:55:11.304Z,26.73
2023-01-29T09:57:44.412Z,25.05
2023-01-29T10:00:23.597Z,25.42
2023-01-29T10:03:19.803Z,24.55
2023-01-29T10:06:09.330Z,21.42
2023-01-29T10:09:22.157Z,24.40
2023-01-29T10:12:15.623Z,24.67
2023-01-29T10:15:10.608Z,23.17
2023-01-29T10:17:53.084Z,22.00
2023-01-29T10:20:47.131Z,21.55
2023-01-29T10:23:37.154Z,21.65
2023-01-29T10:26:04.591Z,21.63
2023-01-29T10:28:46.287Z,24.92
2023-01-29T10:31:25.277Z,25.75
2023-01-29T10:34:04.726Z,23.77
2023-01-29T10:36:44.131Z,22.48
2023-01-29T10:39:21.592Z,23.52
2023-01-29T10:42:23.765Z,24.20
2023-01-29T10:44:50.805Z,18.77
2023-01-29T10:48:00.353Z,23.17
2023-01-29T10:50:40.622Z,20.80
2023-01-29T10:53:11.459Z,21.95
2023-01-29T10:55:47.198Z,23.10
2023-01-29T10:58:23.142Z,22.05
2023-01-29T11:00:51.579Z,21.00
2023-01-29T11:03:28.810Z,22.80
2023-01-29T11:06:08.476Z,22.38
2023-01-29T11:08:48.314Z,20.85
2023-01-29T11:11:22.345Z,22.10
2023-01-29T11:14:00.014Z,19.38
2023-01-29T11:16:30.588Z,21.83
2023-01-29T11:19:01.238Z,23.27
2023-01-29T11:21:30.951Z,19.63
2023-01-29T11:24:10.137Z,18.52
2023-01-29T11:26:41.785Z,21.00
2023-01-29T11:29:34.846Z,21.27
2023-01-29T11:32:24.581Z,19.40
2023-01-29T11:35:21.421Z,21.10
2023-01-29T11:37:51.410Z,19.35
2023-01-29T11:40:19.988Z,17.30
2023-01-29T11:42:49.216Z,19.23
2023-01-29T11:45:27.628Z,18.38
2023-01-29T11:47:57.233Z,19.85
2023-01-29T11:50:29.494Z,20.38
2023-01-29T11:52:59.929Z,19.55
2023-01-29T11:55:48.130Z,17.25
2023-01-29T11:58:29.112Z,16.63
2023-01-29T12:00:58.101Z,6.93
2023-01-29T12:03:45.321Z,15.48
2023-01-29T12:06:45.188Z,14.57
2023-01-29T12:09:19.526Z,14.30
2023-01-29T12:11:47.882Z,15.57
2023-01-29T12:14:33.668Z,17.65
2023-01-29T12:17:25.768Z,16.30
2023-01-29T12:20:02.002Z,14.52
2023-01-29T12:22:40.744Z,15.82
2023-01-29T12:25:21.882Z,15.25
2023-01-29T12:27:52.674Z,11.50
2023-01-29T12:30:29.068Z,13.35
2023-01-29T12:33:10.767Z,18.20
2023-01-29T12:35:51.866Z,16.33
2023-01-29T12:38:23.438Z,17.52
2023-01-29T12:40:58.304Z,17.45
2023-01-29T12:43:40.225Z,16.15
2023-01-29T12:46:17.967Z,16.02
2023-01-29T12:48:48.574Z,15.32
2023-01-29T12:51:29.693Z,15.93
2023-01-29T12:54:20.122Z,15.88
2023-01-29T12:56:53.787Z,15.40
2023-01-29T12:59:31.772Z,16.20
2023-01-29T13:02:26.383Z,13.68
2023-01-29T13:05:09.917Z,7.00
2023-01-29T13:07:46.328Z,14.45
2023-01-29T13:10:19.256Z,14.95
2023-01-29T13:13:02.123Z,13.52
2023-01-29T13:15:39.694Z,14.98
2023-01-29T13:18:44.413Z,13.90
2023-01-29T13:21:19.567Z,13.05
2023-01-29T13:23:51.050Z,15.25
2023-01-29T13:26:24.275Z,15.35
2023-01-29T13:28:53.195Z,13.48
2023-01-29T13:31:28.855Z,14.18
2023-01-29T13:34:20.693Z,14.68
2023-01-29T13:36:55.836Z,15.23
2023-01-29T13:39:30.183Z,15.38
2023-01-29T13:42:01.066Z,15.10
2023-01-29T13:44:37.899Z,16.13
2023-01-29T13:47:20.445Z,15.35
2023-01-29T13:50:02.531Z,15.65
2023-01-29T13:52:44.786Z,15.20
2023-01-29T13:55:18.999Z,16.27
2023-01-29T13:57:48.956Z,16.92
2023-01-29T14:00:21.963Z,16.40
2023-01-29T14:03:11.704Z,14.30
2023-01-29T14:05:44.964Z,16.33
2023-01-29T14:08:12.909Z,14.25
2023-01-29T14:10:41.462Z,16.17
2023-01-29T14:13:11.696Z,17.10
2023-01-29T14:15:40.284Z,17.48
2023-01-29T14:18:21.143Z,16.88
2023-01-29T14:20:48.001Z,11.07
2023-01-29T14:23:41.810Z,17.00
2023-01-29T14:26:24.428Z,14.25
2023-01-29T14:29:14.480Z,12.40
2023-01-29T14:32:06.636Z,11.75
2023-01-29T14:34:41.462Z,16.45
2023-01-29T14:37:14.864Z,15.25
2023-01-29T14:40:22.856Z,16.23
2023-01-29T14:43:08.117Z,14.07
2023-01-29T14:45:37.388Z,14.18
2023-01-29T14:48:11.179Z,15.65
2023-01-29T14:50:49.559Z,15.85
2023-01-29T14:54:01.522Z,18.52
2023-01-29T14:56:37.335Z,15.90
2023-01-29T14:59:22.666Z,19.88
2023-01-29T15:01:58.100Z,20.15
2023-01-29T15:04:32.921Z,17.67
2023-01-29T15:07:10.991Z,18.77
2023-01-29T15:09:49.800Z,20.05
2023-01-29T15:12:28.181Z,22.35
2023-01-29T15:15:27.291Z,17.98
2023-01-29T15:18:13.619Z,20.65
2023-01-29T15:20:43.175Z,18.38
2023-01-29T15:23:34.258Z,15.10
2023-01-29T15:26:26.755Z,20.02
2023-01-29T15:29:03.502Z,21.25
2023-01-29T15:31:33.059Z,19.35
2023-01-29T15:34:06.453Z,19.52
2023-01-29T15:36:36.506Z,18.90
2023-01-29T15:39:22.735Z,26.17
2023-01-29T15:42:04.743Z,17.83
2023-01-29T15:44:31.756Z,22.00
2023-01-29T15:47:01.994Z,23.17
2023-01-29T15:49:33.965Z,26.88
2023-01-29T15:52:08.387Z,27.60
2023-01-29T15:54:36.195Z,26.77
2023-01-29T15:57:04.467Z,24.92
2023-01-29T15:59:35.309Z,25.27
2023-01-29T16:02:33.465Z,25.70
2023-01-29T16:05:00.667Z,22.52
2023-01-29T16:07:30.039Z,19.63
2023-01-29T16:09:59.753Z,23.95
2023-01-29T16:12:28.660Z,22.13
2023-01-29T16:14:56.026Z,23.35
2023-01-29T16:17:35.893Z,19.85
2023-01-29T16:20:08.503Z,25.65
2023-01-29T16:25:12.524Z,13.30
2023-01-29T16:27:43.287Z,26.48
2023-01-29T16:30:16.593Z,16.20
2023-01-29T16:32:45.810Z,23.80
2023-01-29T16:35:17.227Z,25.05
2023-01-29T16:37:50.798Z,23.25
2023-01-29T16:40:28.740Z,22.88
2023-01-29T16:43:17.095Z,18.23
2023-01-29T16:46:06.021Z,25.02
2023-01-29T16:48:34.998Z,26.98
2023-01-29T16:51:26.146Z,25.08
2023-01-29T16:54:18.562Z,21.20
2023-01-29T16:56:47.965Z,20.77
2023-01-29T16:59:32.119Z,21.38
2023-01-29T17:01:59.897Z,22.60
2023-01-29T17:04:28.456Z,23.75
2023-01-29T17:06:59.713Z,23.80
2023-01-29T17:09:38.260Z,25.50
2023-01-29T17:12:09.060Z,24.98
2023-01-29T17:14:37.967Z,25.10
2023-01-29T17:17:14.129Z,23.00
2023-01-29T17:19:41.150Z,24.38
2023-01-29T17:22:14.729Z,26.98
2023-01-29T17:24:44.693Z,23.55
2023-01-29T17:27:21.218Z,22.50
2023-01-29T17:29:51.139Z,19.00
2023-01-29T17:32:20.401Z,20.58
2023-01-29T17:34:50.970Z,20.80
2023-01-29T17:37:18.143Z,26.15
2023-01-29T17:39:51.485Z,20.40
2023-01-29T17:42:19.769Z,23.75
2023-01-29T17:44:46.799Z,23.75
2023-01-29T17:47:17.775Z,25.83
2023-01-29T17:49:46.701Z,24.42
2023-01-29T17:52:14.628Z,25.30
2023-01-29T17:54:41.789Z,20.23
2023-01-29T17:57:12.115Z,25.17
2023-01-29T17:59:39.055Z,27.67
2023-01-29T18:02:07.153Z,21.42
2023-01-29T18:04:38.663Z,26.80
2023-01-29T18:07:05.721Z,22.30
2023-01-29T18:09:35.858Z,25.85
2023-01-29T18:12:11.946Z,22.83
2023-01-29T18:14:38.943Z,25.20
2023-01-29T18:17:07.360Z,25.05
2023-01-29T18:19:34.269Z,27.50
2023-01-29T18:22:01.348Z,23.67
2023-01-29T18:24:28.475Z,27.65
2023-01-29T18:26:55.407Z,26.77
2023-01-29T18:29:30.102Z,22.63
2023-01-29T18:31:58.542Z,27.35
2023-01-29T18:34:25.643Z,28.02
2023-01-29T18:36:52.967Z,28.88
2023-01-29T18:39:21.377Z,29.52
2023-01-29T18:41:52.340Z,25.00
2023-01-29T18:44:19.414Z,27.10
2023-01-29T18:46:50.610Z,30.90
2023-01-29T18:49:18.650Z,29.73
2023-01-29T18:51:45.641Z,29.40
2023-01-29T18:54:13.745Z,28.20
2023-01-29T18:57:11.614Z,23.27
2023-01-29T18:59:28.182Z,24.80
2023-01-29T19:01:55.370Z,26.52
2023-01-29T19:04:22.402Z,27.90
2023-01-29T19:06:49.528Z,27.90
2023-01-29T19:09:17.534Z,20.98
2023-01-29T19:11:45.478Z,27.27
2023-01-29T19:14:15.568Z,25.80
2023-01-29T19:16:44.176Z,29.95
2023-01-29T19:19:11.268Z,28.48
2023-01-29T19:21:38.509Z,25.05
2023-01-29T19:24:05.991Z,23.58
2023-01-29T19:26:37.600Z,30.42
2023-01-29T19:29:04.708Z,24.93
2023-01-29T19:31:33.898Z,25.08
2023-01-29T19:34:01.154Z,22.17
2023-01-29T19:36:32.205Z,21.08
2023-01-29T19:39:00.197Z,18.85
2023-01-29T19:41:29.370Z,26.33
2023-01-29T19:43:56.496Z,31.85
2023-01-29T19:46:26.695Z,30.08
2023-01-29T19:48:58.800Z,35.33
2023-01-29T19:51:29.135Z,34.30
2023-01-29T19:53:57.774Z,31.20
2023-01-29T19:56:25.320Z,23.42
2023-01-29T19:58:57.587Z,31.45
2023-01-29T20:01:29.728Z,33.72
2023-01-29T20:03:59.006Z,28.40
2023-01-29T20:07:05.252Z,27.20
2023-01-29T20:09:33.537Z,28.27
2023-01-29T20:12:00.934Z,28.80
2023-01-29T20:14:30.563Z,27.13
2023-01-29T20:16:58.940Z,28.00
2023-01-29T20:19:25.780Z,32.67
2023-01-29T20:21:53.149Z,28.05
2023-01-29T20:24:21.237Z,27.55
2023-01-29T20:26:48.509Z,30.15
2023-01-29T20:29:16.478Z,32.40
2023-01-29T20:31:43.516Z,29.63
2023-01-29T20:34:13.631Z,27.38
2023-01-29T20:36:40.904Z,29.00
2023-01-29T20:39:07.955Z,28.15
2023-01-29T20:41:37.255Z,26.23
2023-01-29T20:44:05.174Z,24.30
2023-01-29T20:46:35.141Z,29.70
2023-01-29T20:49:02.614Z,32.35
2023-01-29T20:51:30.853Z,25.88
2023-01-29T20:53:58.945Z,27.13
2023-01-29T20:56:32.186Z,31.40
2023-01-29T20:59:07.136Z,28.70
2023-01-29T21:01:35.519Z,20.17
2023-01-29T21:04:04.788Z,24.67
2023-01-29T21:06:59.668Z,26.38
2023-01-29T21:09:27.819Z,25.15
2023-01-29T21:11:54.955Z,30.20
2023-01-29T21:14:23.955Z,23.40
2023-01-29T21:16:51.019Z,26.15
2023-01-29T21:19:20.022Z,28.35
2023-01-29T21:21:51.167Z,24.23
2023-01-29T21:24:19.321Z,27.13
2023-01-29T21:26:46.866Z,28.45
2023-01-29T21:29:14.843Z,27.17
2023-01-29T21:31:43.341Z,23.67
2023-01-29T21:34:12.752Z,24.25
2023-01-29T21:36:40.811Z,27.10
2023-01-29T21:39:16.659Z,29.90
2023-01-29T21:42:03.168Z,24.70
2023-01-29T21:44:33.510Z,27.92
2023-01-29T21:47:12.334Z,16.05
2023-01-29T21:49:43.665Z,25.23
2023-01-29T21:52:13.013Z,30.55
2023-01-29T21:54:41.727Z,21.00
2023-01-29T21:57:13.185Z,17.63
2023-01-29T21:59:52.961Z,21.02
2023-01-29T22:02:22.878Z,12.70
2023-01-29T22:04:51.745Z,25.02
2023-01-29T22:07:27.432Z,27.85
2023-01-29T22:09:57.999Z,26.20
2023-01-29T22:12:26.426Z,28.65
2023-01-29T22:14:53.457Z,29.45
2023-01-29T22:17:22.875Z,17.88
2023-01-29T22:19:50.075Z,28.27
2023-01-29T22:22:18.341Z,24.13
2023-01-29T22:24:46.620Z,27.25
2023-01-29T22:27:15.056Z,26.55
2023-01-29T22:29:42.045Z,24.15
2023-01-29T22:32:11.333Z,23.80
2023-01-29T22:34:42.571Z,19.23
2023-01-29T22:37:25.094Z,22.55
2023-01-29T22:39:55.511Z,19.65
2023-01-29T22:42:27.668Z,23.10
2023-01-29T22:44:55.704Z,19.60
2023-01-29T22:47:23.669Z,16.63
2023-01-29T22:49:52.405Z,17.33
2023-01-29T22:52:23.835Z,16.75
2023-01-29T22:54:51.547Z,21.63
2023-01-29T22:57:19.802Z,26.38
2023-01-29T22:59:46.837Z,27.10
2023-01-29T23:02:14.933Z,25.83
2023-01-29T23:04:42.947Z,27.70
2023-01-29T23:07:10.447Z,28.40
2023-01-29T23:09:39.517Z,26.75
2023-01-29T23:12:08.528Z,30.50
2023-01-29T23:14:36.670Z,29.17
2023-01-29T23:17:07.181Z,28.10
2023-01-29T23:19:34.596Z,30.40
2023-01-29T23:22:01.560Z,25.13
2023-01-29T23:24:30.546Z,29.92
2023-01-29T23:27:24.241Z,29.42
2023-01-29T23:29:51.731Z,28.17
2023-01-29T23:32:22.323Z,24.25
2023-01-29T23:34:53.807Z,25.20
2023-01-29T23:37:22.914Z,20.80
2023-01-29T23:39:52.715Z,28.05
2023-01-29T23:42:21.206Z,23.80
2023-01-29T23:44:50.509Z,23.77
2023-01-29T23:47:21.596Z,27.05
2023-01-29T23:49:50.071Z,17.60
2023-01-29T23:52:18.302Z,24.73
2023-01-29T23:54:45.272Z,25.23
2023-01-29T23:57:15.699Z,23.15
2023-01-29T23:59:44.800Z,19.00
